Terminal Aerodrome Forecast
Issued by NWS Charleston, WV

Current Version | Previous Version | Text Only | Print | Product List | Glossary Off
Versions: 1 2 3 4 5 6 7 8 9 10 11 12 13 14 15 16 17 18 19 20 21 22 23 24 25 26

000
FTUS41 KRLX 010857 AAB
TAFBKW
TAF AMD
KBKW 010857Z 0109/0206 21005KT P6SM BKN020
     FM011000 30005KT 6SM BR BKN015
     FM011500 32004KT 5SM BR BKN018
     FM011800 32005KT 4SM SHRA VCTS BKN020CB
     FM020200 34005KT 2SM SHRA BR OVC010=

USA.gov is the U.S. government's official web portal to all federal, state and local government web resources and services.